sensor_id;sensor_type;location;lat;lon;timestamp;P1;durP1;ratioP1;P2;durP2;ratioP2
59492;SDS011;45497;43.996;22.876;2023-04-23T00:01:57;753.95;;;180.82;;
59492;SDS011;45497;43.996;22.876;2023-04-23T00:04:25;751.05;;;180.63;;
59492;SDS011;45497;43.996;22.876;2023-04-23T00:06:53;726.78;;;172.88;;
59492;SDS011;45497;43.996;22.876;2023-04-23T00:09:19;725.30;;;172.33;;
59492;SDS011;45497;43.996;22.876;2023-04-23T00:11:47;721.08;;;171.05;;
59492;SDS011;45497;43.996;22.876;2023-04-23T00:14:13;710.38;;;167.73;;
59492;SDS011;45497;43.996;22.876;2023-04-23T00:16:39;709.83;;;166.90;;
59492;SDS011;45497;43.996;22.876;2023-04-23T00:19:05;697.35;;;163.90;;
59492;SDS011;45497;43.996;22.876;2023-04-23T00:21:30;693.73;;;163.30;;
59492;SDS011;45497;43.996;22.876;2023-04-23T00:23:56;673.77;;;158.13;;
59492;SDS011;45497;43.996;22.876;2023-04-23T00:26:21;667.80;;;156.95;;
59492;SDS011;45497;43.996;22.876;2023-04-23T00:28:47;664.67;;;155.97;;
59492;SDS011;45497;43.996;22.876;2023-04-23T00:31:13;656.15;;;154.70;;
59492;SDS011;45497;43.996;22.876;2023-04-23T00:33:38;655.47;;;155.10;;
59492;SDS011;45497;43.996;22.876;2023-04-23T00:36:04;652.03;;;153.33;;
59492;SDS011;45497;43.996;22.876;2023-04-23T00:38:30;637.78;;;151.13;;
59492;SDS011;45497;43.996;22.876;2023-04-23T00:40:55;627.10;;;148.88;;
59492;SDS011;45497;43.996;22.876;2023-04-23T00:43:21;635.93;;;150.27;;
59492;SDS011;45497;43.996;22.876;2023-04-23T00:45:46;649.93;;;152.57;;
59492;SDS011;45497;43.996;22.876;2023-04-23T00:48:12;644.15;;;152.07;;
59492;SDS011;45497;43.996;22.876;2023-04-23T00:50:38;634.75;;;150.32;;
59492;SDS011;45497;43.996;22.876;2023-04-23T00:53:03;627.03;;;148.15;;
59492;SDS011;45497;43.996;22.876;2023-04-23T00:55:29;624.55;;;147.07;;
59492;SDS011;45497;43.996;22.876;2023-04-23T00:57:55;622.85;;;147.07;;
59492;SDS011;45497;43.996;22.876;2023-04-23T01:00:20;625.87;;;148.30;;
59492;SDS011;45497;43.996;22.876;2023-04-23T01:02:46;630.80;;;148.10;;
59492;SDS011;45497;43.996;22.876;2023-04-23T01:05:13;619.23;;;146.70;;
59492;SDS011;45497;43.996;22.876;2023-04-23T01:07:42;622.65;;;147.23;;
59492;SDS011;45497;43.996;22.876;2023-04-23T01:10:09;614.13;;;145.50;;
59492;SDS011;45497;43.996;22.876;2023-04-23T01:12:36;607.67;;;144.88;;
59492;SDS011;45497;43.996;22.876;2023-04-23T01:15:01;617.73;;;146.37;;
59492;SDS011;45497;43.996;22.876;2023-04-23T01:17:27;610.00;;;144.83;;
59492;SDS011;45497;43.996;22.876;2023-04-23T01:19:53;413.13;;;110.53;;
59492;SDS011;45497;43.996;22.876;2023-04-23T01:22:18;325.77;;;96.18;;
59492;SDS011;45497;43.996;22.876;2023-04-23T01:24:44;413.00;;;110.18;;
59492;SDS011;45497;43.996;22.876;2023-04-23T01:27:11;425.73;;;111.63;;
59492;SDS011;45497;43.996;22.876;2023-04-23T01:29:37;387.27;;;106.17;;
59492;SDS011;45497;43.996;22.876;2023-04-23T01:32:03;398.88;;;107.70;;
59492;SDS011;45497;43.996;22.876;2023-04-23T01:34:29;392.33;;;107.28;;
59492;SDS011;45497;43.996;22.876;2023-04-23T01:36:56;372.33;;;103.60;;
59492;SDS011;45497;43.996;22.876;2023-04-23T01:39:23;368.25;;;104.07;;
59492;SDS011;45497;43.996;22.876;2023-04-23T01:41:48;366.90;;;104.37;;
59492;SDS011;45497;43.996;22.876;2023-04-23T01:44:15;363.97;;;103.27;;
59492;SDS011;45497;43.996;22.876;2023-04-23T01:46:40;371.50;;;104.60;;
59492;SDS011;45497;43.996;22.876;2023-04-23T01:49:06;381.37;;;105.83;;
59492;SDS011;45497;43.996;22.876;2023-04-23T01:51:32;379.27;;;106.38;;
59492;SDS011;45497;43.996;22.876;2023-04-23T01:53:58;381.98;;;106.50;;
59492;SDS011;45497;43.996;22.876;2023-04-23T01:56:24;391.02;;;108.00;;
59492;SDS011;45497;43.996;22.876;2023-04-23T01:58:52;404.25;;;110.40;;
59492;SDS011;45497;43.996;22.876;2023-04-23T02:01:17;403.27;;;110.27;;
59492;SDS011;45497;43.996;22.876;2023-04-23T02:03:43;381.07;;;106.67;;
59492;SDS011;45497;43.996;22.876;2023-04-23T02:06:09;397.50;;;109.72;;
59492;SDS011;45497;43.996;22.876;2023-04-23T02:08:35;416.02;;;111.28;;
59492;SDS011;45497;43.996;22.876;2023-04-23T02:11:01;413.30;;;110.93;;
59492;SDS011;45497;43.996;22.876;2023-04-23T02:13:26;414.57;;;110.40;;
59492;SDS011;45497;43.996;22.876;2023-04-23T02:15:52;409.80;;;109.87;;
59492;SDS011;45497;43.996;22.876;2023-04-23T02:18:17;395.50;;;108.93;;
59492;SDS011;45497;43.996;22.876;2023-04-23T02:20:43;400.57;;;109.63;;
59492;SDS011;45497;43.996;22.876;2023-04-23T02:23:08;410.67;;;111.97;;
59492;SDS011;45497;43.996;22.876;2023-04-23T02:25:35;397.08;;;109.47;;
59492;SDS011;45497;43.996;22.876;2023-04-23T02:28:02;395.50;;;108.47;;
59492;SDS011;45497;43.996;22.876;2023-04-23T02:30:31;396.52;;;108.20;;
59492;SDS011;45497;43.996;22.876;2023-04-23T02:32:57;386.48;;;106.95;;
59492;SDS011;45497;43.996;22.876;2023-04-23T02:35:22;388.88;;;107.72;;
59492;SDS011;45497;43.996;22.876;2023-04-23T02:37:49;385.60;;;107.40;;
59492;SDS011;45497;43.996;22.876;2023-04-23T02:40:15;377.05;;;108.00;;
59492;SDS011;45497;43.996;22.876;2023-04-23T02:42:40;384.50;;;108.73;;
59492;SDS011;45497;43.996;22.876;2023-04-23T02:45:06;406.23;;;111.60;;
59492;SDS011;45497;43.996;22.876;2023-04-23T02:47:32;397.05;;;110.82;;
59492;SDS011;45497;43.996;22.876;2023-04-23T02:49:58;386.00;;;107.40;;
59492;SDS011;45497;43.996;22.876;2023-04-23T02:52:26;387.42;;;107.05;;
59492;SDS011;45497;43.996;22.876;2023-04-23T02:54:52;390.02;;;107.43;;
59492;SDS011;45497;43.996;22.876;2023-04-23T02:57:17;387.00;;;107.47;;
59492;SDS011;45497;43.996;22.876;2023-04-23T02:59:43;390.47;;;108.10;;
59492;SDS011;45497;43.996;22.876;2023-04-23T03:02:09;371.35;;;105.00;;
59492;SDS011;45497;43.996;22.876;2023-04-23T03:04:35;367.70;;;104.28;;
59492;SDS011;45497;43.996;22.876;2023-04-23T03:07:00;375.58;;;106.10;;
59492;SDS011;45497;43.996;22.876;2023-04-23T03:09:25;380.90;;;106.27;;
59492;SDS011;45497;43.996;22.876;2023-04-23T03:11:51;380.35;;;106.20;;
59492;SDS011;45497;43.996;22.876;2023-04-23T03:14:16;386.13;;;107.63;;
59492;SDS011;45497;43.996;22.876;2023-04-23T03:16:42;390.40;;;108.20;;
59492;SDS011;45497;43.996;22.876;2023-04-23T03:19:07;391.13;;;108.00;;
59492;SDS011;45497;43.996;22.876;2023-04-23T03:21:33;378.83;;;105.77;;
59492;SDS011;45497;43.996;22.876;2023-04-23T03:23:58;369.60;;;103.80;;
59492;SDS011;45497;43.996;22.876;2023-04-23T03:26:24;372.53;;;104.07;;
59492;SDS011;45497;43.996;22.876;2023-04-23T03:28:49;367.13;;;103.63;;
59492;SDS011;45497;43.996;22.876;2023-04-23T03:31:15;375.00;;;105.67;;
59492;SDS011;45497;43.996;22.876;2023-04-23T03:33:40;376.20;;;104.90;;
59492;SDS011;45497;43.996;22.876;2023-04-23T03:36:06;379.57;;;104.53;;
59492;SDS011;45497;43.996;22.876;2023-04-23T03:38:31;374.27;;;104.33;;
59492;SDS011;45497;43.996;22.876;2023-04-23T03:40:57;357.30;;;101.50;;
59492;SDS011;45497;43.996;22.876;2023-04-23T03:43:22;355.17;;;101.60;;
59492;SDS011;45497;43.996;22.876;2023-04-23T03:45:48;351.17;;;101.40;;
59492;SDS011;45497;43.996;22.876;2023-04-23T03:48:13;354.70;;;101.83;;
59492;SDS011;45497;43.996;22.876;2023-04-23T03:50:39;350.55;;;101.15;;
59492;SDS011;45497;43.996;22.876;2023-04-23T03:53:05;356.10;;;102.27;;
59492;SDS011;45497;43.996;22.876;2023-04-23T03:55:32;360.38;;;104.03;;
59492;SDS011;45497;43.996;22.876;2023-04-23T03:57:57;358.47;;;103.13;;
59492;SDS011;45497;43.996;22.876;2023-04-23T04:00:25;349.90;;;102.35;;
59492;SDS011;45497;43.996;22.876;2023-04-23T04:02:51;357.60;;;103.00;;
59492;SDS011;45497;43.996;22.876;2023-04-23T04:05:16;367.13;;;104.00;;
59492;SDS011;45497;43.996;22.876;2023-04-23T04:07:42;353.63;;;101.25;;
59492;SDS011;45497;43.996;22.876;2023-04-23T04:10:07;354.33;;;102.17;;
59492;SDS011;45497;43.996;22.876;2023-04-23T04:12:33;361.60;;;102.60;;
59492;SDS011;45497;43.996;22.876;2023-04-23T04:14:58;357.93;;;102.73;;
59492;SDS011;45497;43.996;22.876;2023-04-23T04:17:24;355.38;;;101.68;;
59492;SDS011;45497;43.996;22.876;2023-04-23T04:19:49;350.43;;;101.33;;
59492;SDS011;45497;43.996;22.876;2023-04-23T04:22:15;348.63;;;101.53;;
59492;SDS011;45497;43.996;22.876;2023-04-23T04:24:41;355.13;;;101.87;;
59492;SDS011;45497;43.996;22.876;2023-04-23T04:27:07;352.92;;;102.25;;
59492;SDS011;45497;43.996;22.876;2023-04-23T04:29:33;358.95;;;103.18;;
59492;SDS011;45497;43.996;22.876;2023-04-23T04:32:00;338.88;;;99.32;;
59492;SDS011;45497;43.996;22.876;2023-04-23T04:34:26;342.60;;;100.22;;
59492;SDS011;45497;43.996;22.876;2023-04-23T04:36:52;343.35;;;99.93;;
59492;SDS011;45497;43.996;22.876;2023-04-23T04:39:18;340.83;;;99.13;;
59492;SDS011;45497;43.996;22.876;2023-04-23T04:41:44;345.55;;;100.45;;
59492;SDS011;45497;43.996;22.876;2023-04-23T04:44:10;340.95;;;100.35;;
59492;SDS011;45497;43.996;22.876;2023-04-23T04:46:38;348.08;;;100.72;;
59492;SDS011;45497;43.996;22.876;2023-04-23T04:49:06;338.95;;;98.95;;
59492;SDS011;45497;43.996;22.876;2023-04-23T04:51:32;332.75;;;98.28;;
59492;SDS011;45497;43.996;22.876;2023-04-23T04:53:57;332.08;;;97.55;;
59492;SDS011;45497;43.996;22.876;2023-04-23T04:56:23;328.97;;;97.60;;
59492;SDS011;45497;43.996;22.876;2023-04-23T04:58:49;336.30;;;101.88;;
59492;SDS011;45497;43.996;22.876;2023-04-23T05:01:15;331.08;;;100.38;;
59492;SDS011;45497;43.996;22.876;2023-04-23T05:03:42;332.25;;;98.53;;
59492;SDS011;45497;43.996;22.876;2023-04-23T05:06:08;324.83;;;97.65;;
59492;SDS011;45497;43.996;22.876;2023-04-23T05:08:33;322.15;;;97.57;;
59492;SDS011;45497;43.996;22.876;2023-04-23T05:10:59;321.13;;;97.53;;
59492;SDS011;45497;43.996;22.876;2023-04-23T05:13:25;318.92;;;96.97;;
59492;SDS011;45497;43.996;22.876;2023-04-23T05:15:51;316.63;;;97.63;;
59492;SDS011;45497;43.996;22.876;2023-04-23T05:18:16;311.20;;;95.73;;
59492;SDS011;45497;43.996;22.876;2023-04-23T05:20:42;307.13;;;95.60;;
59492;SDS011;45497;43.996;22.876;2023-04-23T05:23:07;312.10;;;96.20;;
59492;SDS011;45497;43.996;22.876;2023-04-23T05:25:33;307.67;;;96.37;;
59492;SDS011;45497;43.996;22.876;2023-04-23T05:27:59;292.15;;;93.60;;
59492;SDS011;45497;43.996;22.876;2023-04-23T05:30:25;292.10;;;92.90;;
59492;SDS011;45497;43.996;22.876;2023-04-23T05:32:51;284.77;;;91.55;;
59492;SDS011;45497;43.996;22.876;2023-04-23T05:35:17;279.63;;;91.30;;
59492;SDS011;45497;43.996;22.876;2023-04-23T05:37:42;286.80;;;91.97;;
59492;SDS011;45497;43.996;22.876;2023-04-23T05:40:08;290.00;;;92.20;;
59492;SDS011;45497;43.996;22.876;2023-04-23T05:42:34;281.70;;;91.00;;
59492;SDS011;45497;43.996;22.876;2023-04-23T05:45:01;271.98;;;88.35;;
59492;SDS011;45497;43.996;22.876;2023-04-23T05:47:27;279.45;;;89.65;;
59492;SDS011;45497;43.996;22.876;2023-04-23T05:49:53;278.40;;;89.65;;
59492;SDS011;45497;43.996;22.876;2023-04-23T05:52:21;281.73;;;89.70;;
59492;SDS011;45497;43.996;22.876;2023-04-23T05:54:47;274.27;;;88.93;;
59492;SDS011;45497;43.996;22.876;2023-04-23T05:57:12;282.13;;;89.57;;
59492;SDS011;45497;43.996;22.876;2023-04-23T05:59:38;278.37;;;89.37;;
59492;SDS011;45497;43.996;22.876;2023-04-23T06:02:03;277.85;;;88.88;;
59492;SDS011;45497;43.996;22.876;2023-04-23T06:04:29;270.10;;;88.15;;
59492;SDS011;45497;43.996;22.876;2023-04-23T06:06:55;276.83;;;89.43;;
59492;SDS011;45497;43.996;22.876;2023-04-23T06:09:21;280.77;;;90.30;;
59492;SDS011;45497;43.996;22.876;2023-04-23T06:11:46;278.52;;;89.93;;
59492;SDS011;45497;43.996;22.876;2023-04-23T06:14:14;284.00;;;90.45;;
59492;SDS011;45497;43.996;22.876;2023-04-23T06:16:40;287.85;;;91.13;;
59492;SDS011;45497;43.996;22.876;2023-04-23T06:19:05;282.77;;;90.47;;
59492;SDS011;45497;43.996;22.876;2023-04-23T06:21:31;275.93;;;92.57;;
59492;SDS011;45497;43.996;22.876;2023-04-23T06:23:57;263.85;;;93.03;;
59492;SDS011;45497;43.996;22.876;2023-04-23T06:26:22;285.63;;;92.27;;
59492;SDS011;45497;43.996;22.876;2023-04-23T06:28:47;291.17;;;91.33;;
59492;SDS011;45497;43.996;22.876;2023-04-23T06:31:13;305.60;;;93.13;;
59492;SDS011;45497;43.996;22.876;2023-04-23T06:33:39;287.33;;;91.53;;
59492;SDS011;45497;43.996;22.876;2023-04-23T06:36:04;279.65;;;90.35;;
59492;SDS011;45497;43.996;22.876;2023-04-23T06:38:32;200.50;;;75.50;;
59492;SDS011;45497;43.996;22.876;2023-04-23T06:40:57;187.77;;;72.77;;
59492;SDS011;45497;43.996;22.876;2023-04-23T06:43:24;185.60;;;73.18;;
59492;SDS011;45497;43.996;22.876;2023-04-23T06:45:50;184.25;;;73.25;;
59492;SDS011;45497;43.996;22.876;2023-04-23T06:48:15;201.37;;;75.83;;
59492;SDS011;45497;43.996;22.876;2023-04-23T06:53:26;222.55;;;80.75;;
59492;SDS011;45497;43.996;22.876;2023-04-23T06:55:51;224.50;;;81.00;;
59492;SDS011;45497;43.996;22.876;2023-04-23T06:58:17;194.23;;;74.73;;
59492;SDS011;45497;43.996;22.876;2023-04-23T07:00:42;192.55;;;73.82;;
59492;SDS011;45497;43.996;22.876;2023-04-23T07:03:08;153.13;;;66.17;;
59492;SDS011;45497;43.996;22.876;2023-04-23T07:05:33;161.85;;;67.70;;
59492;SDS011;45497;43.996;22.876;2023-04-23T07:07:59;160.70;;;67.73;;
59492;SDS011;45497;43.996;22.876;2023-04-23T07:10:24;148.38;;;65.03;;
59492;SDS011;45497;43.996;22.876;2023-04-23T07:12:50;141.13;;;63.80;;
59492;SDS011;45497;43.996;22.876;2023-04-23T07:15:15;139.30;;;63.25;;
59492;SDS011;45497;43.996;22.876;2023-04-23T07:17:41;152.13;;;66.00;;
59492;SDS011;45497;43.996;22.876;2023-04-23T07:20:06;144.77;;;63.92;;
59492;SDS011;45497;43.996;22.876;2023-04-23T07:22:33;143.57;;;63.70;;
59492;SDS011;45497;43.996;22.876;2023-04-23T07:24:59;114.60;;;57.95;;
59492;SDS011;45497;43.996;22.876;2023-04-23T07:27:25;101.75;;;55.63;;
59492;SDS011;45497;43.996;22.876;2023-04-23T07:29:51;112.63;;;57.20;;
59492;SDS011;45497;43.996;22.876;2023-04-23T07:32:16;105.15;;;56.58;;
59492;SDS011;45497;43.996;22.876;2023-04-23T07:34:42;113.28;;;57.38;;
59492;SDS011;45497;43.996;22.876;2023-04-23T07:37:07;122.07;;;60.43;;
59492;SDS011;45497;43.996;22.876;2023-04-23T07:39:33;129.10;;;61.40;;
59492;SDS011;45497;43.996;22.876;2023-04-23T07:41:59;133.73;;;61.87;;
59492;SDS011;45497;43.996;22.876;2023-04-23T07:44:26;124.05;;;59.72;;
59492;SDS011;45497;43.996;22.876;2023-04-23T07:46:51;124.07;;;59.67;;
59492;SDS011;45497;43.996;22.876;2023-04-23T07:49:17;123.20;;;58.70;;
59492;SDS011;45497;43.996;22.876;2023-04-23T07:51:42;122.30;;;59.53;;
59492;SDS011;45497;43.996;22.876;2023-04-23T07:54:08;123.73;;;60.17;;
59492;SDS011;45497;43.996;22.876;2023-04-23T07:56:34;129.20;;;60.57;;
59492;SDS011;45497;43.996;22.876;2023-04-23T07:59:00;136.43;;;62.30;;
59492;SDS011;45497;43.996;22.876;2023-04-23T08:01:26;139.18;;;63.63;;
59492;SDS011;45497;43.996;22.876;2023-04-23T08:03:51;94.47;;;52.13;;
59492;SDS011;45497;43.996;22.876;2023-04-23T08:06:19;132.07;;;61.75;;
59492;SDS011;45497;43.996;22.876;2023-04-23T08:08:46;131.27;;;62.33;;
59492;SDS011;45497;43.996;22.876;2023-04-23T08:11:11;133.47;;;62.43;;
59492;SDS011;45497;43.996;22.876;2023-04-23T08:13:37;145.02;;;64.20;;
59492;SDS011;45497;43.996;22.876;2023-04-23T08:16:02;155.27;;;65.93;;
59492;SDS011;45497;43.996;22.876;2023-04-23T08:18:28;155.57;;;66.55;;
59492;SDS011;45497;43.996;22.876;2023-04-23T08:20:54;130.48;;;61.15;;
59492;SDS011;45497;43.996;22.876;2023-04-23T08:23:23;146.00;;;63.88;;
59492;SDS011;45497;43.996;22.876;2023-04-23T08:25:48;149.80;;;64.57;;
59492;SDS011;45497;43.996;22.876;2023-04-23T08:28:14;152.97;;;66.10;;
59492;SDS011;45497;43.996;22.876;2023-04-23T08:30:40;152.95;;;66.05;;
59492;SDS011;45497;43.996;22.876;2023-04-23T08:33:05;153.33;;;65.53;;
59492;SDS011;45497;43.996;22.876;2023-04-23T08:35:31;159.85;;;67.25;;
59492;SDS011;45497;43.996;22.876;2023-04-23T08:37:57;164.73;;;67.25;;
59492;SDS011;45497;43.996;22.876;2023-04-23T08:40:22;157.00;;;66.87;;
59492;SDS011;45497;43.996;22.876;2023-04-23T08:42:49;178.32;;;70.13;;
59492;SDS011;45497;43.996;22.876;2023-04-23T08:45:21;193.88;;;73.85;;
59492;SDS011;45497;43.996;22.876;2023-04-23T08:47:47;192.73;;;74.35;;
59492;SDS011;45497;43.996;22.876;2023-04-23T08:50:14;205.10;;;76.03;;
59492;SDS011;45497;43.996;22.876;2023-04-23T08:52:46;205.18;;;75.80;;
59492;SDS011;45497;43.996;22.876;2023-04-23T08:55:14;236.02;;;81.32;;
59492;SDS011;45497;43.996;22.876;2023-04-23T08:57:42;232.60;;;81.25;;
59492;SDS011;45497;43.996;22.876;2023-04-23T09:00:10;242.88;;;83.65;;
59492;SDS011;45497;43.996;22.876;2023-04-23T09:02:38;277.83;;;89.85;;
59492;SDS011;45497;43.996;22.876;2023-04-23T09:05:05;276.00;;;89.93;;
59492;SDS011;45497;43.996;22.876;2023-04-23T09:07:31;290.50;;;91.45;;
59492;SDS011;45497;43.996;22.876;2023-04-23T09:09:58;353.65;;;102.47;;
59492;SDS011;45497;43.996;22.876;2023-04-23T09:12:23;356.10;;;102.80;;
59492;SDS011;45497;43.996;22.876;2023-04-23T09:14:49;350.00;;;101.97;;
59492;SDS011;45497;43.996;22.876;2023-04-23T09:17:16;328.07;;;98.57;;
59492;SDS011;45497;43.996;22.876;2023-04-23T09:19:42;362.43;;;104.17;;
59492;SDS011;45497;43.996;22.876;2023-04-23T09:22:09;355.65;;;102.78;;
59492;SDS011;45497;43.996;22.876;2023-04-23T09:24:35;345.38;;;101.35;;
59492;SDS011;45497;43.996;22.876;2023-04-23T09:27:00;363.80;;;103.33;;
59492;SDS011;45497;43.996;22.876;2023-04-23T09:29:27;351.50;;;101.80;;
59492;SDS011;45497;43.996;22.876;2023-04-23T09:31:57;349.83;;;101.63;;
59492;SDS011;45497;43.996;22.876;2023-04-23T09:34:33;350.60;;;102.07;;
59492;SDS011;45497;43.996;22.876;2023-04-23T09:36:59;351.13;;;101.72;;
59492;SDS011;45497;43.996;22.876;2023-04-23T09:39:25;358.33;;;102.40;;
59492;SDS011;45497;43.996;22.876;2023-04-23T09:41:51;360.97;;;103.47;;
59492;SDS011;45497;43.996;22.876;2023-04-23T09:44:18;457.75;;;119.05;;
59492;SDS011;45497;43.996;22.876;2023-04-23T09:46:48;576.97;;;140.20;;
59492;SDS011;45497;43.996;22.876;2023-04-23T09:49:14;575.80;;;139.52;;
59492;SDS011;45497;43.996;22.876;2023-04-23T09:51:44;573.88;;;138.95;;
59492;SDS011;45497;43.996;22.876;2023-04-23T09:54:16;582.27;;;141.03;;
59492;SDS011;45497;43.996;22.876;2023-04-23T09:56:49;368.40;;;104.28;;
59492;SDS011;45497;43.996;22.876;2023-04-23T10:01:49;508.27;;;126.65;;
59492;SDS011;45497;43.996;22.876;2023-04-23T10:04:17;484.53;;;122.20;;
59492;SDS011;45497;43.996;22.876;2023-04-23T10:06:45;494.05;;;124.13;;
59492;SDS011;45497;43.996;22.876;2023-04-23T10:09:10;497.13;;;125.00;;
59492;SDS011;45497;43.996;22.876;2023-04-23T10:11:36;487.80;;;123.17;;
59492;SDS011;45497;43.996;22.876;2023-04-23T10:14:02;487.55;;;123.22;;
59492;SDS011;45497;43.996;22.876;2023-04-23T10:16:28;491.33;;;123.93;;
59492;SDS011;45497;43.996;22.876;2023-04-23T10:18:54;513.77;;;127.40;;
59492;SDS011;45497;43.996;22.876;2023-04-23T10:21:24;503.48;;;126.25;;
59492;SDS011;45497;43.996;22.876;2023-04-23T10:23:53;513.83;;;127.17;;
59492;SDS011;45497;43.996;22.876;2023-04-23T10:26:21;459.38;;;119.43;;
59492;SDS011;45497;43.996;22.876;2023-04-23T10:28:49;492.95;;;124.20;;
59492;SDS011;45497;43.996;22.876;2023-04-23T10:31:17;494.67;;;124.05;;
59492;SDS011;45497;43.996;22.876;2023-04-23T10:33:44;492.10;;;124.28;;
59492;SDS011;45497;43.996;22.876;2023-04-23T10:36:11;483.67;;;123.17;;
59492;SDS011;45497;43.996;22.876;2023-04-23T10:38:38;484.25;;;122.40;;
59492;SDS011;45497;43.996;22.876;2023-04-23T10:41:05;486.08;;;123.93;;
59492;SDS011;45497;43.996;22.876;2023-04-23T10:43:32;496.15;;;125.03;;
59492;SDS011;45497;43.996;22.876;2023-04-23T10:45:59;513.20;;;127.53;;
59492;SDS011;45497;43.996;22.876;2023-04-23T10:48:26;518.05;;;128.38;;
59492;SDS011;45497;43.996;22.876;2023-04-23T10:50:58;532.10;;;130.77;;
59492;SDS011;45497;43.996;22.876;2023-04-23T10:53:24;547.65;;;134.27;;
59492;SDS011;45497;43.996;22.876;2023-04-23T10:56:03;539.90;;;132.02;;
59492;SDS011;45497;43.996;22.876;2023-04-23T10:58:49;546.50;;;133.40;;
59492;SDS011;45497;43.996;22.876;2023-04-23T11:01:16;429.58;;;113.60;;
59492;SDS011;45497;43.996;22.876;2023-04-23T11:03:43;405.83;;;111.30;;
59492;SDS011;45497;43.996;22.876;2023-04-23T11:06:11;911.85;;;251.90;;
59492;SDS011;45497;43.996;22.876;2023-04-23T11:08:57;952.50;;;269.67;;
59492;SDS011;45497;43.996;22.876;2023-04-23T11:11:26;952.63;;;269.23;;
59492;SDS011;45497;43.996;22.876;2023-04-23T11:14:09;991.03;;;286.73;;
59492;SDS011;45497;43.996;22.876;2023-04-23T11:16:38;1016.10;;;297.80;;
59492;SDS011;45497;43.996;22.876;2023-04-23T11:19:10;1070.47;;;322.80;;
59492;SDS011;45497;43.996;22.876;2023-04-23T11:24:34;1112.70;;;344.05;;
59492;SDS011;45497;43.996;22.876;2023-04-23T11:27:04;1428.00;;;510.90;;
59492;SDS011;45497;43.996;22.876;2023-04-23T11:29:31;1370.97;;;484.17;;
59492;SDS011;45497;43.996;22.876;2023-04-23T11:31:56;1398.43;;;494.08;;
59492;SDS011;45497;43.996;22.876;2023-04-23T11:34:22;1349.93;;;470.60;;
59492;SDS011;45497;43.996;22.876;2023-04-23T11:36:50;1362.13;;;476.80;;
59492;SDS011;45497;43.996;22.876;2023-04-23T11:39:17;1335.53;;;464.87;;
59492;SDS011;45497;43.996;22.876;2023-04-23T11:41:44;1316.90;;;452.95;;
59492;SDS011;45497;43.996;22.876;2023-04-23T11:44:11;1312.65;;;449.02;;
59492;SDS011;45497;43.996;22.876;2023-04-23T11:46:37;1304.72;;;443.38;;
59492;SDS011;45497;43.996;22.876;2023-04-23T11:49:02;1282.15;;;430.30;;
59492;SDS011;45497;43.996;22.876;2023-04-23T11:51:28;1276.53;;;432.67;;
59492;SDS011;45497;43.996;22.876;2023-04-23T11:53:54;1283.88;;;438.58;;
59492;SDS011;45497;43.996;22.876;2023-04-23T11:56:28;1283.55;;;435.98;;
59492;SDS011;45497;43.996;22.876;2023-04-23T11:58:58;1284.00;;;426.55;;
59492;SDS011;45497;43.996;22.876;2023-04-23T12:01:37;1277.55;;;429.95;;
59492;SDS011;45497;43.996;22.876;2023-04-23T12:04:27;1276.07;;;427.60;;
59492;SDS011;45497;43.996;22.876;2023-04-23T12:06:55;1273.28;;;423.70;;
59492;SDS011;45497;43.996;22.876;2023-04-23T12:09:22;1263.35;;;419.98;;
59492;SDS011;45497;43.996;22.876;2023-04-23T12:11:49;1268.43;;;424.07;;
59492;SDS011;45497;43.996;22.876;2023-04-23T12:14:15;1253.25;;;416.35;;
59492;SDS011;45497;43.996;22.876;2023-04-23T12:16:43;1267.30;;;425.63;;
59492;SDS011;45497;43.996;22.876;2023-04-23T12:19:14;1247.20;;;412.83;;
59492;SDS011;45497;43.996;22.876;2023-04-23T12:21:55;1262.43;;;423.13;;
59492;SDS011;45497;43.996;22.876;2023-04-23T12:24:23;1278.70;;;431.75;;
59492;SDS011;45497;43.996;22.876;2023-04-23T12:26:54;1274.38;;;426.20;;
59492;SDS011;45497;43.996;22.876;2023-04-23T12:29:22;1286.72;;;440.67;;
59492;SDS011;45497;43.996;22.876;2023-04-23T12:31:49;1287.35;;;437.02;;
59492;SDS011;45497;43.996;22.876;2023-04-23T12:34:16;1300.97;;;442.75;;
59492;SDS011;45497;43.996;22.876;2023-04-23T12:36:48;1321.43;;;457.02;;
59492;SDS011;45497;43.996;22.876;2023-04-23T12:41:58;1379.45;;;486.92;;
59492;SDS011;45497;43.996;22.876;2023-04-23T12:44:31;1370.00;;;486.05;;
59492;SDS011;45497;43.996;22.876;2023-04-23T12:47:04;1391.43;;;497.40;;
59492;SDS011;45497;43.996;22.876;2023-04-23T12:49:37;1398.35;;;502.17;;
59492;SDS011;45497;43.996;22.876;2023-04-23T12:52:05;1397.90;;;499.90;;
59492;SDS011;45497;43.996;22.876;2023-04-23T12:54:31;1341.45;;;475.27;;
59492;SDS011;45497;43.996;22.876;2023-04-23T12:56:59;1350.45;;;478.17;;
59492;SDS011;45497;43.996;22.876;2023-04-23T12:59:28;1354.63;;;478.67;;
59492;SDS011;45497;43.996;22.876;2023-04-23T13:01:54;1342.43;;;466.73;;
59492;SDS011;45497;43.996;22.876;2023-04-23T13:04:20;1343.57;;;468.87;;
59492;SDS011;45497;43.996;22.876;2023-04-23T13:06:45;1350.93;;;474.70;;
59492;SDS011;45497;43.996;22.876;2023-04-23T13:09:11;1332.72;;;467.20;;
59492;SDS011;45497;43.996;22.876;2023-04-23T13:11:37;1333.80;;;459.70;;
59492;SDS011;45497;43.996;22.876;2023-04-23T13:14:03;1344.25;;;466.75;;
59492;SDS011;45497;43.996;22.876;2023-04-23T13:16:29;1340.70;;;464.08;;
59492;SDS011;45497;43.996;22.876;2023-04-23T13:18:55;1353.38;;;472.42;;
59492;SDS011;45497;43.996;22.876;2023-04-23T13:21:21;1356.77;;;468.50;;
